AR73 weather

Piggott Community Hospital Heliport
Piggott, Arkansas, United States

Public forecast

Using degrees Fahrenheit for public forecast. Weather courtesy of forecast.io.

Closest aviation weather report (METAR) to Piggott Community Hospital Heliport

Closest report is Kennett Memorial Airport, 12.7 nm (23.5 km) SE. Retrieved 2019/12/05 19:35 UTC (0 seconds ago):

KTKX 051935Z AUTO 18009KT 10SM 16/03 A3004 RMK AO2

Closest aviation forecast (TAF) to Piggott Community Hospital Heliport

Forecast is more than 6 hours old.

Closest forecast is Jonesboro Municipal Airport, 39.8 nm (73.8 km) SSW. Retrieved 2019/12/05 12:27 UTC (7 hours ago):

TAF KJBR 051125Z 0512/0612 VRB03KT P6SM FEW150 BKN200 FM051500 18009KT P6SM OVC100 FM060100 16004KT P6SM OVC100 FM060900 11004KT 6SM -SHRA BR SCT015 BKN035